sensor_id;sensor_type;location;lat;lon;timestamp;pressure;altitude;pressure_sealevel;temperature;humidity
31088;BME280;17745;55.914;37.554;2022-10-22T00:00:45;99566.91;;;8.88;60.87
31088;BME280;17745;55.914;37.554;2022-10-22T00:03:50;99556.12;;;9.01;60.64
31088;BME280;17745;55.914;37.554;2022-10-22T00:40:42;99531.38;;;9.20;60.22
31088;BME280;17745;55.914;37.554;2022-10-22T00:50:18;99534.72;;;9.44;59.60
31088;BME280;17745;55.914;37.554;2022-10-22T00:53:51;99534.81;;;9.49;59.55
31088;BME280;17745;55.914;37.554;2022-10-22T00:57:29;99534.72;;;9.44;59.65
31088;BME280;17745;55.914;37.554;2022-10-22T01:00:40;99533.44;;;9.47;59.56
31088;BME280;17745;55.914;37.554;2022-10-22T01:07:03;99536.56;;;9.43;59.59
31088;BME280;17745;55.914;37.554;2022-10-22T01:24:22;99532.47;;;8.95;60.42
31088;BME280;17745;55.914;37.554;2022-10-22T02:42:52;99567.78;;;9.47;59.06
31088;BME280;17745;55.914;37.554;2022-10-22T02:45:47;99570.00;;;9.50;59.15
31088;BME280;17745;55.914;37.554;2022-10-22T02:48:33;99569.41;;;9.48;59.32
31088;BME280;17745;55.914;37.554;2022-10-22T02:51:37;99573.06;;;9.47;59.46
31088;BME280;17745;55.914;37.554;2022-10-22T02:54:09;99573.06;;;9.47;59.40
31088;BME280;17745;55.914;37.554;2022-10-22T02:56:56;99576.09;;;9.38;59.53
31088;BME280;17745;55.914;37.554;2022-10-22T02:59:47;99577.38;;;9.36;59.66
31088;BME280;17745;55.914;37.554;2022-10-22T03:02:22;99572.44;;;9.39;59.66
31088;BME280;17745;55.914;37.554;2022-10-22T03:04:55;99567.13;;;9.39;59.64
31088;BME280;17745;55.914;37.554;2022-10-22T03:07:26;99570.44;;;9.47;59.45
31088;BME280;17745;55.914;37.554;2022-10-22T03:09:57;99575.84;;;9.52;59.36
31088;BME280;17745;55.914;37.554;2022-10-22T03:12:31;99569.72;;;9.51;59.46
31088;BME280;17745;55.914;37.554;2022-10-22T03:15:12;99574.31;;;9.56;59.41
31088;BME280;17745;55.914;37.554;2022-10-22T03:17:44;99559.44;;;9.67;59.29
31088;BME280;17745;55.914;37.554;2022-10-22T03:20:21;99565.94;;;9.76;59.12
31088;BME280;17745;55.914;37.554;2022-10-22T03:23:35;99565.00;;;9.82;59.03
31088;BME280;17745;55.914;37.554;2022-10-22T03:30:55;99572.13;;;9.99;58.55
31088;BME280;17745;55.914;37.554;2022-10-22T06:46:44;99611.28;;;11.22;57.80
31088;BME280;17745;55.914;37.554;2022-10-22T06:49:24;99616.69;;;11.32;57.67
31088;BME280;17745;55.914;37.554;2022-10-22T06:51:54;99621.00;;;11.38;57.56
31088;BME280;17745;55.914;37.554;2022-10-22T06:54:28;99620.19;;;11.38;57.48
31088;BME280;17745;55.914;37.554;2022-10-22T06:56:59;99623.66;;;11.38;57.38
31088;BME280;17745;55.914;37.554;2022-10-22T06:59:41;99619.50;;;11.48;57.20
31088;BME280;17745;55.914;37.554;2022-10-22T07:02:34;99616.22;;;11.63;56.91
31088;BME280;17745;55.914;37.554;2022-10-22T07:05:36;99616.12;;;11.75;56.53
31088;BME280;17745;55.914;37.554;2022-10-22T07:08:32;99616.69;;;11.82;56.60
31088;BME280;17745;55.914;37.554;2022-10-22T07:11:23;99623.16;;;11.91;56.59
31088;BME280;17745;55.914;37.554;2022-10-22T07:14:28;99628.59;;;12.01;56.21
31088;BME280;17745;55.914;37.554;2022-10-22T07:18:33;99631.84;;;12.09;56.06
31088;BME280;17745;55.914;37.554;2022-10-22T07:21:30;99628.78;;;12.22;55.72
31088;BME280;17745;55.914;37.554;2022-10-22T07:24:32;99633.53;;;12.20;55.33
31088;BME280;17745;55.914;37.554;2022-10-22T07:27:03;99630.78;;;12.10;55.09
31088;BME280;17745;55.914;37.554;2022-10-22T07:29:56;99632.03;;;12.02;55.43
31088;BME280;17745;55.914;37.554;2022-10-22T07:40:14;99638.69;;;12.32;54.75
31088;BME280;17745;55.914;37.554;2022-10-22T07:42:51;99630.97;;;12.30;54.67
31088;BME280;17745;55.914;37.554;2022-10-22T07:45:27;99630.22;;;12.35;54.43
31088;BME280;17745;55.914;37.554;2022-10-22T07:48:01;99641.06;;;12.34;54.40
31088;BME280;17745;55.914;37.554;2022-10-22T10:45:01;99614.53;;;12.34;51.10
31088;BME280;17745;55.914;37.554;2022-10-22T10:48:38;99600.84;;;12.14;51.19
31088;BME280;17745;55.914;37.554;2022-10-22T10:58:44;99606.53;;;12.28;51.04
31088;BME280;17745;55.914;37.554;2022-10-22T11:01:49;99604.69;;;12.29;50.98
31088;BME280;17745;55.914;37.554;2022-10-22T11:11:47;99592.97;;;12.25;50.89
31088;BME280;17745;55.914;37.554;2022-10-22T11:14:58;99589.91;;;12.11;51.06
31088;BME280;17745;55.914;37.554;2022-10-22T12:14:18;99545.41;;;11.91;51.21
31088;BME280;17745;55.914;37.554;2022-10-22T12:16:57;99545.28;;;12.03;51.12
31088;BME280;17745;55.914;37.554;2022-10-22T12:19:39;99547.19;;;12.07;50.96
31088;BME280;17745;55.914;37.554;2022-10-22T12:22:48;99546.00;;;11.98;51.13
31088;BME280;17745;55.914;37.554;2022-10-22T12:42:06;99525.03;;;11.96;51.08
31088;BME280;17745;55.914;37.554;2022-10-22T12:44:57;99521.78;;;11.89;51.16
31088;BME280;17745;55.914;37.554;2022-10-22T12:47:29;99523.69;;;11.94;51.14
31088;BME280;17745;55.914;37.554;2022-10-22T12:50:17;99527.69;;;11.96;51.09
31088;BME280;17745;55.914;37.554;2022-10-22T12:52:52;99520.34;;;12.04;50.92
31088;BME280;17745;55.914;37.554;2022-10-22T12:56:20;99521.97;;;12.10;50.82
31088;BME280;17745;55.914;37.554;2022-10-22T13:06:29;99523.97;;;11.65;51.41
31088;BME280;17745;55.914;37.554;2022-10-22T13:09:13;99516.50;;;11.62;51.39
31088;BME280;17745;55.914;37.554;2022-10-22T13:12:04;99510.06;;;11.52;51.56
31088;BME280;17745;55.914;37.554;2022-10-22T14:35:13;99485.66;;;9.65;55.96
31088;BME280;17745;55.914;37.554;2022-10-22T14:45:28;99483.34;;;9.52;56.28
31088;BME280;17745;55.914;37.554;2022-10-22T17:01:19;99482.13;;;10.28;56.69
31088;BME280;17745;55.914;37.554;2022-10-22T17:03:55;99477.00;;;10.21;56.89
31088;BME280;17745;55.914;37.554;2022-10-22T17:06:25;99487.00;;;10.19;56.92
31088;BME280;17745;55.914;37.554;2022-10-22T17:08:55;99476.44;;;10.19;57.00
31088;BME280;17745;55.914;37.554;2022-10-22T17:11:26;99474.84;;;10.18;57.05
31088;BME280;17745;55.914;37.554;2022-10-22T17:14:05;99482.22;;;10.16;57.18
31088;BME280;17745;55.914;37.554;2022-10-22T17:16:45;99470.59;;;10.17;57.21
31088;BME280;17745;55.914;37.554;2022-10-22T17:19:36;99474.91;;;10.23;57.10
31088;BME280;17745;55.914;37.554;2022-10-22T17:22:25;99468.88;;;10.28;57.00
31088;BME280;17745;55.914;37.554;2022-10-22T17:25:12;99474.72;;;10.30;57.00
31088;BME280;17745;55.914;37.554;2022-10-22T17:27:45;99468.72;;;10.35;56.90
31088;BME280;17745;55.914;37.554;2022-10-22T17:30:45;99463.97;;;10.37;56.83
31088;BME280;17745;55.914;37.554;2022-10-22T17:40:09;99450.47;;;10.78;56.41
31088;BME280;17745;55.914;37.554;2022-10-22T17:43:01;99450.47;;;10.78;56.41
31088;BME280;17745;55.914;37.554;2022-10-22T17:45:50;99451.97;;;10.29;57.09
31088;BME280;17745;55.914;37.554;2022-10-22T17:48:27;99452.00;;;10.12;57.41
31088;BME280;17745;55.914;37.554;2022-10-22T17:51:12;99449.53;;;10.05;57.64
31088;BME280;17745;55.914;37.554;2022-10-22T17:54:10;99443.69;;;10.03;57.66
31088;BME280;17745;55.914;37.554;2022-10-22T17:56:42;99441.97;;;10.14;57.26
31088;BME280;17745;55.914;37.554;2022-10-22T17:59:14;99442.91;;;10.25;57.03
31088;BME280;17745;55.914;37.554;2022-10-22T18:01:45;99446.72;;;10.34;56.88
31088;BME280;17745;55.914;37.554;2022-10-22T18:04:18;99444.97;;;10.40;56.85
31088;BME280;17745;55.914;37.554;2022-10-22T18:06:50;99438.16;;;10.44;56.77
31088;BME280;17745;55.914;37.554;2022-10-22T18:09:21;99430.47;;;10.42;56.75
31088;BME280;17745;55.914;37.554;2022-10-22T18:11:53;99428.38;;;10.44;56.77
31088;BME280;17745;55.914;37.554;2022-10-22T18:14:22;99429.16;;;10.45;56.69
31088;BME280;17745;55.914;37.554;2022-10-22T18:16:54;99423.31;;;10.43;56.71
31088;BME280;17745;55.914;37.554;2022-10-22T18:19:23;99422.41;;;10.37;56.77
31088;BME280;17745;55.914;37.554;2022-10-22T18:21:51;99427.91;;;10.30;56.83
31088;BME280;17745;55.914;37.554;2022-10-22T18:24:19;99422.03;;;10.28;56.90
31088;BME280;17745;55.914;37.554;2022-10-22T18:26:52;99418.66;;;10.33;56.86
31088;BME280;17745;55.914;37.554;2022-10-22T18:29:20;99421.37;;;10.38;56.68
31088;BME280;17745;55.914;37.554;2022-10-22T18:31:48;99426.22;;;10.41;56.64
31088;BME280;17745;55.914;37.554;2022-10-22T18:37:48;99422.66;;;10.53;56.33
31088;BME280;17745;55.914;37.554;2022-10-22T18:40:17;99420.31;;;10.56;56.28
31088;BME280;17745;55.914;37.554;2022-10-22T18:42:47;99417.41;;;10.58;56.20
31088;BME280;17745;55.914;37.554;2022-10-22T18:45:16;99415.81;;;10.57;56.20
31088;BME280;17745;55.914;37.554;2022-10-22T18:47:44;99407.31;;;10.55;56.18
31088;BME280;17745;55.914;37.554;2022-10-22T18:50:13;99402.75;;;10.50;56.18
31088;BME280;17745;55.914;37.554;2022-10-22T18:52:44;99404.84;;;10.48;56.18
31088;BME280;17745;55.914;37.554;2022-10-22T18:55:13;99405.41;;;10.50;56.12
31088;BME280;17745;55.914;37.554;2022-10-22T18:57:42;99404.09;;;10.53;56.01
31088;BME280;17745;55.914;37.554;2022-10-22T19:00:13;99398.28;;;10.51;56.07
31088;BME280;17745;55.914;37.554;2022-10-22T19:02:42;99395.94;;;10.54;56.03
31088;BME280;17745;55.914;37.554;2022-10-22T19:05:11;99399.63;;;10.53;56.07
31088;BME280;17745;55.914;37.554;2022-10-22T19:07:39;99399.13;;;10.56;56.01
31088;BME280;17745;55.914;37.554;2022-10-22T19:10:08;99393.03;;;10.56;56.01
31088;BME280;17745;55.914;37.554;2022-10-22T19:12:36;99395.94;;;10.54;55.99
31088;BME280;17745;55.914;37.554;2022-10-22T19:15:05;99397.78;;;10.54;55.99
31088;BME280;17745;55.914;37.554;2022-10-22T19:17:38;99393.22;;;10.49;56.11
31088;BME280;17745;55.914;37.554;2022-10-22T19:20:08;99394.81;;;10.50;56.06
31088;BME280;17745;55.914;37.554;2022-10-22T19:22:37;99400.09;;;10.50;56.02
31088;BME280;17745;55.914;37.554;2022-10-22T19:25:26;99391.91;;;10.52;55.99
31088;BME280;17745;55.914;37.554;2022-10-22T19:27:57;99387.69;;;10.51;55.83
31088;BME280;17745;55.914;37.554;2022-10-22T19:30:26;99393.22;;;10.49;55.79
31088;BME280;17745;55.914;37.554;2022-10-22T19:33:00;99391.87;;;10.47;55.83
31088;BME280;17745;55.914;37.554;2022-10-22T19:35:36;99389.22;;;10.47;55.85
31088;BME280;17745;55.914;37.554;2022-10-22T19:38:04;99399.16;;;10.39;55.94
31088;BME280;17745;55.914;37.554;2022-10-22T19:40:40;99392.84;;;10.40;55.96
31088;BME280;17745;55.914;37.554;2022-10-22T19:43:10;99383.94;;;10.47;55.84
31088;BME280;17745;55.914;37.554;2022-10-22T19:45:40;99392.53;;;10.37;55.89
31088;BME280;17745;55.914;37.554;2022-10-22T19:48:10;99386.13;;;10.33;55.92
31088;BME280;17745;55.914;37.554;2022-10-22T19:50:39;99395.03;;;10.26;56.06
31088;BME280;17745;55.914;37.554;2022-10-22T19:53:09;99391.28;;;10.22;55.98
31088;BME280;17745;55.914;37.554;2022-10-22T19:55:42;99391.28;;;10.22;56.02
31088;BME280;17745;55.914;37.554;2022-10-22T19:58:11;99401.31;;;10.20;56.06
31088;BME280;17745;55.914;37.554;2022-10-22T20:00:42;99397.44;;;10.28;55.80
31088;BME280;17745;55.914;37.554;2022-10-22T20:03:42;99393.97;;;10.27;55.73
31088;BME280;17745;55.914;37.554;2022-10-22T20:06:18;99393.69;;;10.24;55.80
31088;BME280;17745;55.914;37.554;2022-10-22T20:08:51;99399.47;;;10.21;55.92
31088;BME280;17745;55.914;37.554;2022-10-22T20:11:23;99396.63;;;10.27;55.85
31088;BME280;17745;55.914;37.554;2022-10-22T20:13:55;99389.56;;;10.33;55.72
31088;BME280;17745;55.914;37.554;2022-10-22T20:16:27;99395.09;;;10.32;55.79
31088;BME280;17745;55.914;37.554;2022-10-22T20:21:59;99387.91;;;10.49;55.99
31088;BME280;17745;55.914;37.554;2022-10-22T20:24:27;99387.91;;;10.49;55.99
31088;BME280;17745;55.914;37.554;2022-10-22T20:26:57;99385.19;;;10.22;56.25
31088;BME280;17745;55.914;37.554;2022-10-22T20:29:28;99387.16;;;10.32;55.97
31088;BME280;17745;55.914;37.554;2022-10-22T20:32:09;99394.84;;;10.33;55.75
31088;BME280;17745;55.914;37.554;2022-10-22T20:34:48;99390.09;;;10.35;55.73
31088;BME280;17745;55.914;37.554;2022-10-22T20:37:17;99393.06;;;10.39;55.65
31088;BME280;17745;55.914;37.554;2022-10-22T20:39:48;99384.66;;;10.42;55.54
31088;BME280;17745;55.914;37.554;2022-10-22T20:42:21;99383.53;;;10.38;55.56
31088;BME280;17745;55.914;37.554;2022-10-22T20:44:54;99378.19;;;10.33;55.48
31088;BME280;17745;55.914;37.554;2022-10-22T20:47:22;99376.87;;;10.35;55.43
31088;BME280;17745;55.914;37.554;2022-10-22T20:49:51;99379.84;;;10.39;55.30
31088;BME280;17745;55.914;37.554;2022-10-22T20:52:22;99374.06;;;10.42;55.26
31088;BME280;17745;55.914;37.554;2022-10-22T20:54:53;99373.56;;;10.45;55.21
31088;BME280;17745;55.914;37.554;2022-10-22T20:57:24;99373.34;;;10.47;55.17
31088;BME280;17745;55.914;37.554;2022-10-22T20:59:54;99367.72;;;10.43;55.04
31088;BME280;17745;55.914;37.554;2022-10-22T21:02:33;99368.94;;;10.35;55.11
31088;BME280;17745;55.914;37.554;2022-10-22T21:05:02;99368.81;;;10.25;55.38
31088;BME280;17745;55.914;37.554;2022-10-22T21:07:33;99360.25;;;10.18;55.43
31088;BME280;17745;55.914;37.554;2022-10-22T21:10:09;99367.47;;;10.22;55.46
31088;BME280;17745;55.914;37.554;2022-10-22T21:12:38;99375.72;;;10.26;55.43
31088;BME280;17745;55.914;37.554;2022-10-22T21:15:08;99372.56;;;10.29;55.24
31088;BME280;17745;55.914;37.554;2022-10-22T21:17:37;99370.72;;;10.29;55.23
31088;BME280;17745;55.914;37.554;2022-10-22T21:20:06;99368.00;;;10.24;55.21
31088;BME280;17745;55.914;37.554;2022-10-22T21:22:37;99362.47;;;10.26;55.29
31088;BME280;17745;55.914;37.554;2022-10-22T21:25:09;99357.19;;;10.26;55.28
31088;BME280;17745;55.914;37.554;2022-10-22T21:27:38;99357.19;;;10.26;55.32
31088;BME280;17745;55.914;37.554;2022-10-22T21:30:11;99359.03;;;10.25;55.16
31088;BME280;17745;55.914;37.554;2022-10-22T21:32:39;99350.03;;;10.26;55.20
31088;BME280;17745;55.914;37.554;2022-10-22T21:35:14;99354.84;;;10.29;55.17
31088;BME280;17745;55.914;37.554;2022-10-22T21:37:51;99346.34;;;10.27;55.23
31088;BME280;17745;55.914;37.554;2022-10-22T21:40:20;99350.12;;;10.32;55.14
31088;BME280;17745;55.914;37.554;2022-10-22T21:42:53;99344.25;;;10.29;55.17
31088;BME280;17745;55.914;37.554;2022-10-22T21:45:24;99339.53;;;10.32;55.14
31088;BME280;17745;55.914;37.554;2022-10-22T21:47:52;99340.59;;;10.30;55.12
31088;BME280;17745;55.914;37.554;2022-10-22T21:50:20;99331.34;;;10.33;55.07
31088;BME280;17745;55.914;37.554;2022-10-22T21:52:48;99335.28;;;10.30;55.11
31088;BME280;17745;55.914;37.554;2022-10-22T21:55:17;99327.28;;;10.25;55.20
31088;BME280;17745;55.914;37.554;2022-10-22T21:57:44;99323.03;;;10.24;55.13
31088;BME280;17745;55.914;37.554;2022-10-22T22:00:19;99322.25;;;10.24;55.19
31088;BME280;17745;55.914;37.554;2022-10-22T22:02:48;99321.97;;;10.25;55.18
31088;BME280;17745;55.914;37.554;2022-10-22T22:05:16;99315.41;;;10.28;55.12
31088;BME280;17745;55.914;37.554;2022-10-22T22:07:52;99309.56;;;10.26;55.10
31088;BME280;17745;55.914;37.554;2022-10-22T22:10:22;99311.47;;;10.30;54.97
31088;BME280;17745;55.914;37.554;2022-10-22T22:12:50;99304.09;;;10.33;54.86
31088;BME280;17745;55.914;37.554;2022-10-22T22:15:19;99310.44;;;10.32;54.82
31088;BME280;17745;55.914;37.554;2022-10-22T22:17:47;99306.19;;;10.30;54.85
31088;BME280;17745;55.914;37.554;2022-10-22T22:20:15;99303.03;;;10.34;54.79
31088;BME280;17745;55.914;37.554;2022-10-22T22:22:45;99300.69;;;10.37;54.76
31088;BME280;17745;55.914;37.554;2022-10-22T22:25:15;99303.09;;;10.39;54.68
31088;BME280;17745;55.914;37.554;2022-10-22T22:27:44;99305.25;;;10.42;54.60
31088;BME280;17745;55.914;37.554;2022-10-22T22:30:12;99302.84;;;10.40;54.60
31088;BME280;17745;55.914;37.554;2022-10-22T22:32:40;99294.59;;;10.37;54.60
31088;BME280;17745;55.914;37.554;2022-10-22T22:35:11;99295.66;;;10.36;54.55
31088;BME280;17745;55.914;37.554;2022-10-22T22:37:39;99299.34;;;10.35;54.50
31088;BME280;17745;55.914;37.554;2022-10-22T22:40:08;99291.31;;;10.29;54.60
31088;BME280;17745;55.914;37.554;2022-10-22T22:42:36;99291.81;;;10.26;54.56
31088;BME280;17745;55.914;37.554;2022-10-22T22:45:06;99283.66;;;10.28;54.55
31088;BME280;17745;55.914;37.554;2022-10-22T22:47:35;99281.00;;;10.28;54.39
31088;BME280;17745;55.914;37.554;2022-10-22T22:50:03;99282.84;;;10.27;54.33
31088;BME280;17745;55.914;37.554;2022-10-22T22:52:31;99275.91;;;10.21;54.27
31088;BME280;17745;55.914;37.554;2022-10-22T22:55:00;99278.19;;;10.12;54.52
31088;BME280;17745;55.914;37.554;2022-10-22T22:57:29;99269.69;;;10.10;54.59
31088;BME280;17745;55.914;37.554;2022-10-22T22:59:57;99259.34;;;10.09;54.56
31088;BME280;17745;55.914;37.554;2022-10-22T23:02:26;99269.69;;;10.10;54.51
31088;BME280;17745;55.914;37.554;2022-10-22T23:04:54;99266.31;;;10.15;54.41
31088;BME280;17745;55.914;37.554;2022-10-22T23:07:22;99264.28;;;10.22;54.33
31088;BME280;17745;55.914;37.554;2022-10-22T23:09:51;99260.34;;;10.25;54.16
31088;BME280;17745;55.914;37.554;2022-10-22T23:12:19;99255.84;;;10.25;54.11
31088;BME280;17745;55.914;37.554;2022-10-22T23:14:48;99254.78;;;10.26;54.04
31088;BME280;17745;55.914;37.554;2022-10-22T23:17:18;99245.50;;;10.24;54.02
31088;BME280;17745;55.914;37.554;2022-10-22T23:19:47;99238.63;;;10.23;54.00
31088;BME280;17745;55.914;37.554;2022-10-22T23:22:15;99244.34;;;10.14;54.10
31088;BME280;17745;55.914;37.554;2022-10-22T23:24:43;99229.78;;;10.12;54.13
31088;BME280;17745;55.914;37.554;2022-10-22T23:27:11;99231.63;;;10.11;54.15
31088;BME280;17745;55.914;37.554;2022-10-22T23:29:39;99232.66;;;10.10;54.15
31088;BME280;17745;55.914;37.554;2022-10-22T23:32:11;99239.87;;;10.15;54.11
31088;BME280;17745;55.914;37.554;2022-10-22T23:34:39;99235.16;;;10.22;53.93
31088;BME280;17745;55.914;37.554;2022-10-22T23:37:11;99227.22;;;10.22;53.90
31088;BME280;17745;55.914;37.554;2022-10-22T23:39:39;99223.28;;;10.25;53.84
31088;BME280;17745;55.914;37.554;2022-10-22T23:42:06;99227.78;;;10.24;53.80
31088;BME280;17745;55.914;37.554;2022-10-22T23:44:35;99227.22;;;10.22;53.68
31088;BME280;17745;55.914;37.554;2022-10-22T23:47:03;99215.84;;;10.22;53.71
31088;BME280;17745;55.914;37.554;2022-10-22T23:49:31;99217.19;;;10.24;53.68
31088;BME280;17745;55.914;37.554;2022-10-22T23:52:00;99213.75;;;10.24;53.58
31088;BME280;17745;55.914;37.554;2022-10-22T23:54:29;99207.41;;;10.25;53.51
31088;BME280;17745;55.914;37.554;2022-10-22T23:56:57;99205.75;;;10.19;53.55
31088;BME280;17745;55.914;37.554;2022-10-22T23:59:25;99207.63;;;10.18;53.55
